Time;durP1;ratioP1;P1;durP2;ratioP2;P2;SDS_P1;SDS_P2;PMS_P1;PMS_P2;Temp;Humidity;BMP_temperature;BMP_pressure;BME280_temperature;BME280_humidity;BME280_pressure;Samples;Min_cycle;Max_cycle;Signal;HPM_P1;HPM_P2
2021/10/30 00:01:15;;;;;;;;;18.50;18.00;;;;;;;;5055329;28;45587;-68
2021/10/30 00:03:41;;;;;;;;;22.25;22.25;;;;;;;;5056663;28;46272;-69
2021/10/30 00:06:06;;;;;;;;;22.50;20.75;;;;;;;;5054942;28;45805;-70
2021/10/30 00:08:32;;;;;;;;;20.25;18.75;;;;;;;;5053315;28;45364;-72
2021/10/30 00:10:58;;;;;;;;;20.75;18.75;;;;;;;;5053645;28;45449;-71
2021/10/30 00:13:23;;;;;;;;;27.25;21.50;;;;;;;;5054900;28;46084;-71
2021/10/30 00:15:48;;;;;;;;;15.75;15.75;;;;;;;;5057379;28;45433;-71
2021/10/30 00:18:13;;;;;;;;;20.25;17.25;;;;;;;;5055249;28;45437;-72
2021/10/30 00:20:38;;;;;;;;;16.00;16.00;;;;;;;;5055264;28;45308;-71
2021/10/30 00:23:04;;;;;;;;;18.50;17.75;;;;;;;;5054831;28;45461;-71
2021/10/30 00:25:29;;;;;;;;;23.50;19.25;;;;;;;;5055199;28;45518;-70
2021/10/30 00:27:55;;;;;;;;;17.50;17.50;;;;;;;;5057247;28;45422;-69
2021/10/30 00:30:20;;;;;;;;;18.25;15.75;;;;;;;;5053887;28;45371;-69
2021/10/30 00:32:45;;;;;;;;;17.25;17.25;;;;;;;;5054466;28;45413;-70
2021/10/30 00:35:10;;;;;;;;;22.00;21.25;;;;;;;;5055164;28;45388;-69
2021/10/30 00:37:35;;;;;;;;;19.75;18.25;;;;;;;;5055189;28;45457;-70
2021/10/30 00:40:01;;;;;;;;;19.25;18.50;;;;;;;;5057245;28;45379;-70
2021/10/30 00:42:26;;;;;;;;;21.25;17.75;;;;;;;;5054504;28;46223;-70
2021/10/30 00:44:51;;;;;;;;;16.25;14.75;;;;;;;;5054907;28;45518;-70
2021/10/30 00:47:16;;;;;;;;;17.25;16.75;;;;;;;;5053415;28;45454;-70
2021/10/30 00:49:43;;;;;;;;;18.75;15.75;;;;;;;;5053357;28;45494;-70
2021/10/30 00:52:09;;;;;;;;;19.00;16.75;;;;;;;;5055176;28;45391;-71
2021/10/30 00:54:37;;;;;;;;;12.25;12.00;;;;;;;;5055385;28;45296;-70
2021/10/30 00:57:02;;;;;;;;;13.00;12.00;;;;;;;;5054445;28;45408;-71
2021/10/30 00:59:28;;;;;;;;;13.00;9.75;;;;;;;;5054610;28;45466;-71
2021/10/30 01:01:53;;;;;;;;;20.25;16.75;;;;;;;;5054207;28;46158;-69
2021/10/30 01:04:19;;;;;;;;;21.25;17.25;;;;;;;;5054292;28;45467;-69
2021/10/30 01:06:45;;;;;;;;;15.00;14.25;;;;;;;;5056401;28;45358;-71
2021/10/30 01:09:11;;;;;;;;;14.25;13.25;;;;;;;;5054558;28;45396;-71
2021/10/30 01:11:36;;;;;;;;;15.00;13.75;;;;;;;;5053994;28;45516;-71
2021/10/30 01:14:02;;;;;;;;;15.25;14.00;;;;;;;;5054027;28;45408;-71
2021/10/30 01:16:27;;;;;;;;;10.50;10.50;;;;;;;;5054546;28;45533;-70
2021/10/30 01:18:52;;;;;;;;;15.00;15.00;;;;;;;;5056509;28;45332;-71
2021/10/30 01:21:28;;;;;;;;;13.00;13.00;;;;;;;;5053782;28;45614;-70
2021/10/30 01:23:55;;;;;;;;;17.75;15.75;;;;;;;;5053511;28;45594;-69
2021/10/30 01:26:21;;;;;;;;;15.75;15.75;;;;;;;;5052594;28;45833;-70
2021/10/30 01:28:47;;;;;;;;;17.75;17.75;;;;;;;;5034545;28;45592;-71
2021/10/30 01:31:12;;;;;;;;;5.75;5.75;;;;;;;;5054959;28;46023;-71
2021/10/30 01:33:37;;;;;;;;;21.75;17.25;;;;;;;;5055554;28;45473;-71
2021/10/30 01:36:06;;;;;;;;;17.00;16.00;;;;;;;;5053671;28;45372;-71
2021/10/30 01:38:32;;;;;;;;;20.25;18.25;;;;;;;;5054195;28;45496;-71
2021/10/30 01:40:57;;;;;;;;;20.75;19.50;;;;;;;;5053925;28;46242;-71
2021/10/30 01:43:22;;;;;;;;;15.75;15.75;;;;;;;;5054178;28;45359;-71
2021/10/30 01:45:48;;;;;;;;;14.25;12.75;;;;;;;;5056449;28;45425;-72
2021/10/30 01:48:13;;;;;;;;;16.75;14.00;;;;;;;;5053841;28;45524;-71
2021/10/30 01:50:38;;;;;;;;;11.75;10.00;;;;;;;;5053287;28;46132;-71
2021/10/30 01:53:04;;;;;;;;;10.50;9.50;;;;;;;;5053966;28;45357;-71
2021/10/30 01:55:33;;;;;;;;;11.00;11.00;;;;;;;;5038128;28;45313;-71
2021/10/30 01:57:59;;;;;;;;;13.00;11.00;;;;;;;;5051844;28;45430;-71
2021/10/30 02:00:24;;;;;;;;;12.25;12.25;;;;;;;;5053817;28;45929;-71
2021/10/30 02:02:50;;;;;;;;;17.75;12.75;;;;;;;;5054154;28;45505;-71
2021/10/30 02:05:15;;;;;;;;;16.50;10.25;;;;;;;;5052256;28;45369;-71
2021/10/30 02:07:40;;;;;;;;;10.25;10.25;;;;;;;;5052558;28;45356;-71
2021/10/30 02:10:07;;;;;;;;;12.00;10.25;;;;;;;;5055124;28;49888;-73
2021/10/30 02:12:33;;;;;;;;;13.50;11.75;;;;;;;;5054516;28;45359;-72
2021/10/30 02:14:58;;;;;;;;;14.25;9.75;;;;;;;;5053332;28;47165;-72
2021/10/30 02:17:24;;;;;;;;;15.25;12.00;;;;;;;;5053702;28;45260;-72
2021/10/30 02:19:49;;;;;;;;;10.75;10.50;;;;;;;;5053314;28;47408;-72
2021/10/30 02:22:14;;;;;;;;;15.00;12.50;;;;;;;;5053897;28;45331;-72
2021/10/30 02:24:39;;;;;;;;;15.50;12.00;;;;;;;;5055588;28;45457;-72
2021/10/30 02:27:05;;;;;;;;;15.75;14.75;;;;;;;;5053566;28;45425;-72
2021/10/30 02:29:30;;;;;;;;;11.50;11.50;;;;;;;;5053241;28;45293;-72
2021/10/30 02:31:55;;;;;;;;;12.50;12.50;;;;;;;;5053367;28;45498;-72
2021/10/30 02:34:20;;;;;;;;;13.50;9.50;;;;;;;;5053635;28;45328;-73
2021/10/30 02:36:45;;;;;;;;;11.50;11.25;;;;;;;;5055825;28;45424;-72
2021/10/30 02:39:11;;;;;;;;;13.25;13.25;;;;;;;;5053424;28;46129;-72
2021/10/30 02:41:39;;;;;;;;;12.25;12.00;;;;;;;;5034041;28;45480;-72
2021/10/30 02:44:04;;;;;;;;;13.75;12.50;;;;;;;;5052016;28;45674;-72
2021/10/30 02:46:30;;;;;;;;;12.50;11.00;;;;;;;;5052213;28;45416;-71
2021/10/30 02:48:55;;;;;;;;;7.25;7.25;;;;;;;;5054649;28;45553;-71
2021/10/30 02:51:20;;;;;;;;;12.50;12.00;;;;;;;;5053004;28;45339;-71
2021/10/30 02:53:46;;;;;;;;;12.00;12.00;;;;;;;;5052361;28;45287;-71
2021/10/30 02:56:11;;;;;;;;;13.00;12.00;;;;;;;;5052855;28;45435;-71
2021/10/30 02:58:36;;;;;;;;;11.75;11.25;;;;;;;;5053031;28;46890;-71
2021/10/30 03:01:02;;;;;;;;;16.75;10.75;;;;;;;;5055021;28;45316;-71
2021/10/30 03:03:27;;;;;;;;;14.75;14.75;;;;;;;;5053184;28;45425;-70
2021/10/30 03:05:52;;;;;;;;;12.75;11.25;;;;;;;;5053307;28;45465;-71
2021/10/30 03:08:17;;;;;;;;;12.75;12.50;;;;;;;;5052990;28;45385;-72
2021/10/30 03:10:42;;;;;;;;;15.75;15.00;;;;;;;;5052721;28;45458;-72
2021/10/30 03:13:09;;;;;;;;;13.00;12.50;;;;;;;;5054377;28;45381;-72
2021/10/30 03:15:35;;;;;;;;;13.00;11.25;;;;;;;;5054080;28;45241;-72
2021/10/30 03:18:00;;;;;;;;;13.75;11.50;;;;;;;;5051898;28;46063;-72
2021/10/30 03:20:25;;;;;;;;;12.50;11.50;;;;;;;;5052476;28;45434;-72
2021/10/30 03:22:51;;;;;;;;;15.50;15.25;;;;;;;;5051186;28;45489;-72
2021/10/30 03:25:16;;;;;;;;;15.75;13.00;;;;;;;;5053079;28;45327;-79
2021/10/30 03:27:42;;;;;;;;;15.25;12.00;;;;;;;;5048479;28;45427;-71
2021/10/30 03:30:07;;;;;;;;;15.50;14.25;;;;;;;;5043912;28;45427;-70
2021/10/30 03:32:33;;;;;;;;;14.50;12.25;;;;;;;;5043523;28;45453;-70
2021/10/30 03:34:58;;;;;;;;;14.00;13.25;;;;;;;;5052493;28;45426;-70
2021/10/30 03:37:25;;;;;;;;;12.25;12.25;;;;;;;;5052182;28;46228;-70
2021/10/30 03:39:51;;;;;;;;;17.25;14.00;;;;;;;;5053028;28;45364;-70
2021/10/30 03:42:16;;;;;;;;;13.75;13.75;;;;;;;;5052108;28;45995;-68
2021/10/30 03:44:41;;;;;;;;;12.75;12.75;;;;;;;;5052125;28;45427;-69
2021/10/30 03:47:07;;;;;;;;;15.50;12.25;;;;;;;;5051596;28;46299;-69
2021/10/30 03:49:35;;;;;;;;;12.25;12.25;;;;;;;;5033939;28;46017;-69
2021/10/30 03:52:00;;;;;;;;;13.00;12.00;;;;;;;;5054548;28;45365;-69
2021/10/30 03:54:25;;;;;;;;;14.75;14.50;;;;;;;;5051921;28;45305;-69
2021/10/30 03:56:51;;;;;;;;;11.50;10.00;;;;;;;;5051868;28;46302;-70
2021/10/30 03:59:17;;;;;;;;;13.00;13.00;;;;;;;;5052737;28;45289;-70
2021/10/30 04:01:42;;;;;;;;;11.25;11.25;;;;;;;;5050878;28;45439;-69
2021/10/30 04:04:07;;;;;;;;;12.75;11.75;;;;;;;;5054880;28;45297;-69
2021/10/30 04:06:32;;;;;;;;;11.25;9.25;;;;;;;;5054763;28;45426;-69
2021/10/30 04:08:58;;;;;;;;;11.25;11.25;;;;;;;;5055021;28;45460;-70
2021/10/30 04:11:23;;;;;;;;;12.75;11.75;;;;;;;;5054830;28;45288;-69
2021/10/30 04:13:48;;;;;;;;;13.25;13.25;;;;;;;;5055304;28;45437;-70
2021/10/30 04:16:15;;;;;;;;;11.50;10.50;;;;;;;;5055535;28;46490;-70
2021/10/30 04:18:42;;;;;;;;;12.00;11.00;;;;;;;;5057183;28;45308;-69
2021/10/30 04:21:07;;;;;;;;;11.00;10.50;;;;;;;;5055068;28;45507;-69
2021/10/30 04:23:33;;;;;;;;;13.25;9.00;;;;;;;;5055304;28;45531;-70
2021/10/30 04:25:58;;;;;;;;;11.25;10.00;;;;;;;;5054698;28;47217;-70
2021/10/30 04:28:24;;;;;;;;;12.00;10.00;;;;;;;;5055282;28;45287;-70
2021/10/30 04:30:49;;;;;;;;;12.00;12.00;;;;;;;;5039123;28;45321;-70
2021/10/30 04:33:16;;;;;;;;;9.50;9.50;;;;;;;;5055259;28;45477;-70
2021/10/30 04:35:42;;;;;;;;;8.75;8.75;;;;;;;;5055152;28;46586;-69
2021/10/30 04:38:08;;;;;;;;;10.75;10.75;;;;;;;;5055158;28;45435;-70
2021/10/30 04:40:33;;;;;;;;;10.50;9.50;;;;;;;;5053829;28;45725;-70
2021/10/30 04:42:58;;;;;;;;;12.25;11.25;;;;;;;;5057022;28;45363;-70
2021/10/30 04:45:24;;;;;;;;;13.00;11.25;;;;;;;;5052863;28;46158;-69
2021/10/30 04:47:49;;;;;;;;;9.50;9.25;;;;;;;;5054906;28;45443;-69
2021/10/30 04:50:14;;;;;;;;;10.75;9.50;;;;;;;;5054575;28;45538;-69
2021/10/30 04:52:40;;;;;;;;;10.50;9.25;;;;;;;;5054758;28;45456;-69
2021/10/30 04:55:06;;;;;;;;;9.25;9.25;;;;;;;;5056131;28;46862;-70
2021/10/30 04:57:31;;;;;;;;;11.50;10.00;;;;;;;;5055020;28;45506;-69
2021/10/30 04:59:56;;;;;;;;;12.25;9.75;;;;;;;;5051919;28;45440;-69
2021/10/30 05:02:21;;;;;;;;;10.25;10.25;;;;;;;;5054427;28;45454;-69
2021/10/30 05:04:46;;;;;;;;;11.50;8.75;;;;;;;;5054554;28;46129;-71
2021/10/30 05:07:12;;;;;;;;;14.25;13.50;;;;;;;;5055218;28;45348;-70
2021/10/30 05:09:37;;;;;;;;;10.50;9.25;;;;;;;;5056012;28;45268;-70
2021/10/30 05:12:03;;;;;;;;;9.25;9.25;;;;;;;;5054112;28;45557;-70
2021/10/30 05:14:28;;;;;;;;;7.75;7.00;;;;;;;;5053365;28;45416;-70
2021/10/30 05:16:53;;;;;;;;;9.75;8.25;;;;;;;;5053747;28;45449;-70
2021/10/30 05:19:18;;;;;;;;;9.25;9.25;;;;;;;;5036485;28;45566;-70
2021/10/30 05:21:44;;;;;;;;;10.75;9.50;;;;;;;;5054542;28;45324;-70
2021/10/30 05:24:10;;;;;;;;;7.00;7.00;;;;;;;;5052475;28;46059;-70
2021/10/30 05:26:35;;;;;;;;;8.00;8.00;;;;;;;;5053865;28;45386;-70
2021/10/30 05:29:00;;;;;;;;;10.00;10.00;;;;;;;;5053324;28;45633;-70
2021/10/30 05:31:25;;;;;;;;;11.25;9.25;;;;;;;;5054254;28;45266;-70
2021/10/30 05:33:51;;;;;;;;;7.00;7.00;;;;;;;;5056020;28;46309;-70
2021/10/30 05:36:17;;;;;;;;;10.00;10.00;;;;;;;;5053534;28;45280;-69
2021/10/30 05:38:48;;;;;;;;;11.50;10.00;;;;;;;;5053340;28;45405;-69
2021/10/30 05:41:15;;;;;;;;;9.25;9.25;;;;;;;;5053747;28;45455;-70
2021/10/30 05:43:41;;;;;;;;;9.00;7.50;;;;;;;;5053542;28;45484;-69
2021/10/30 05:46:09;;;;;;;;;12.25;11.50;;;;;;;;5055103;28;45310;-70
2021/10/30 05:48:35;;;;;;;;;8.75;8.25;;;;;;;;5054087;28;45954;-69
2021/10/30 05:51:01;;;;;;;;;7.00;7.00;;;;;;;;5053651;28;45449;-70
2021/10/30 05:53:26;;;;;;;;;6.75;6.75;;;;;;;;5053235;28;46370;-70
2021/10/30 05:55:51;;;;;;;;;9.00;8.25;;;;;;;;5052895;28;45438;-69
2021/10/30 05:58:16;;;;;;;;;9.75;9.25;;;;;;;;5054533;28;45543;-70
2021/10/30 06:00:42;;;;;;;;;3.00;3.00;;;;;;;;5053371;28;45406;-70
2021/10/30 06:03:07;;;;;;;;;9.00;7.00;;;;;;;;5051865;28;46125;-70
2021/10/30 06:05:33;;;;;;;;;9.25;9.25;;;;;;;;5053199;28;45514;-70
2021/10/30 06:07:58;;;;;;;;;9.00;8.00;;;;;;;;5053241;28;45361;-70
2021/10/30 06:10:24;;;;;;;;;7.00;7.00;;;;;;;;5053277;28;45488;-70
2021/10/30 06:12:49;;;;;;;;;8.00;8.00;;;;;;;;5055656;28;45918;-70
2021/10/30 06:15:15;;;;;;;;;9.25;8.25;;;;;;;;5053318;28;45552;-70
2021/10/30 06:17:40;;;;;;;;;10.00;10.00;;;;;;;;5052863;28;45571;-70
2021/10/30 06:20:06;;;;;;;;;6.00;6.00;;;;;;;;5052745;28;45292;-70
2021/10/30 06:22:31;;;;;;;;;7.50;7.50;;;;;;;;5053372;28;46345;-70
2021/10/30 06:24:56;;;;;;;;;8.50;8.50;;;;;;;;5054895;28;45402;-70
2021/10/30 06:27:22;;;;;;;;;10.00;9.00;;;;;;;;5051866;28;45618;-70
2021/10/30 06:29:47;;;;;;;;;9.25;8.25;;;;;;;;5053038;28;45292;-70
2021/10/30 06:32:12;;;;;;;;;10.00;10.00;;;;;;;;5034681;28;47250;-70
2021/10/30 06:34:38;;;;;;;;;7.50;7.50;;;;;;;;5052920;28;45486;-70
2021/10/30 06:37:03;;;;;;;;;8.25;8.25;;;;;;;;5054600;28;45440;-70
2021/10/30 06:39:28;;;;;;;;;9.00;8.75;;;;;;;;5053529;28;45378;-70
2021/10/30 06:41:53;;;;;;;;;8.50;8.00;;;;;;;;5051135;28;45536;-70
2021/10/30 06:44:19;;;;;;;;;8.50;8.50;;;;;;;;5052865;28;45656;-70
2021/10/30 06:46:45;;;;;;;;;8.75;8.75;;;;;;;;5053011;28;45356;-69
2021/10/30 06:49:11;;;;;;;;;8.50;7.00;;;;;;;;5053572;28;45311;-70
2021/10/30 06:51:39;;;;;;;;;8.75;6.00;;;;;;;;5053355;28;45279;-69
2021/10/30 06:54:04;;;;;;;;;7.25;7.25;;;;;;;;5051530;28;45460;-71
2021/10/30 06:56:29;;;;;;;;;7.50;7.00;;;;;;;;5034766;28;45289;-70
2021/10/30 06:58:54;;;;;;;;;10.00;8.25;;;;;;;;5051809;28;45269;-70
2021/10/30 07:01:20;;;;;;;;;7.75;7.00;;;;;;;;5052734;28;45313;-70
2021/10/30 07:03:45;;;;;;;;;6.50;6.50;;;;;;;;5055021;28;45300;-71
2021/10/30 07:06:11;;;;;;;;;10.50;8.00;;;;;;;;5035079;28;45350;-71
2021/10/30 07:08:36;;;;;;;;;6.00;6.00;;;;;;;;5053201;28;45354;-71
2021/10/30 07:11:01;;;;;;;;;7.25;6.25;;;;;;;;5050776;28;46075;-72
2021/10/30 07:13:26;;;;;;;;;6.75;6.75;;;;;;;;5053314;28;45280;-71
2021/10/30 07:15:52;;;;;;;;;5.00;5.00;;;;;;;;5055757;28;45459;-71
2021/10/30 07:18:17;;;;;;;;;7.25;6.25;;;;;;;;5051639;28;47085;-71
2021/10/30 07:20:42;;;;;;;;;5.25;5.25;;;;;;;;5051673;28;45463;-71
2021/10/30 07:23:08;;;;;;;;;6.00;4.00;;;;;;;;5052022;28;45417;-70
2021/10/30 07:25:33;;;;;;;;;4.75;4.00;;;;;;;;5052636;28;45360;-71
2021/10/30 07:27:58;;;;;;;;;2.00;2.00;;;;;;;;5050542;28;45371;-71
2021/10/30 07:30:23;;;;;;;;;5.75;4.00;;;;;;;;5052855;28;45549;-71
2021/10/30 07:32:52;;;;;;;;;6.75;6.00;;;;;;;;5051673;28;45402;-71
2021/10/30 07:35:18;;;;;;;;;4.25;4.25;;;;;;;;5051654;28;45564;-70
2021/10/30 07:37:43;;;;;;;;;6.75;6.75;;;;;;;;5051096;28;45297;-70
2021/10/30 07:40:09;;;;;;;;;6.25;6.25;;;;;;;;5055471;28;45914;-71
2021/10/30 07:42:34;;;;;;;;;4.25;3.75;;;;;;;;5055960;28;45343;-71
2021/10/30 07:45:00;;;;;;;;;4.25;4.25;;;;;;;;5055513;28;45363;-70
2021/10/30 07:47:25;;;;;;;;;8.00;6.25;;;;;;;;5054976;28;45390;-70
2021/10/30 07:49:51;;;;;;;;;6.50;5.25;;;;;;;;5055033;28;47095;-69
2021/10/30 07:52:16;;;;;;;;;7.00;5.75;;;;;;;;5054600;28;45327;-71
2021/10/30 07:54:41;;;;;;;;;6.00;6.00;;;;;;;;5057214;28;45364;-71
2021/10/30 07:57:07;;;;;;;;;5.00;5.00;;;;;;;;5053107;28;45340;-71
2021/10/30 07:59:32;;;;;;;;;4.75;4.75;;;;;;;;5053515;28;46164;-71
2021/10/30 08:02:01;;;;;;;;;8.25;7.00;;;;;;;;5055204;28;45549;-70
2021/10/30 08:04:30;;;;;;;;;10.50;8.50;;;;;;;;5036943;28;45502;-70
2021/10/30 08:06:55;;;;;;;;;8.00;7.00;;;;;;;;5057017;28;45158;-71
2021/10/30 08:09:20;;;;;;;;;4.75;4.75;;;;;;;;5054361;28;47098;-71
2021/10/30 08:11:45;;;;;;;;;6.00;5.00;;;;;;;;5054606;28;45412;-71
2021/10/30 08:14:11;;;;;;;;;4.00;4.00;;;;;;;;5054557;28;45285;-70
2021/10/30 08:16:36;;;;;;;;;5.50;5.00;;;;;;;;5054537;28;45328;-71
2021/10/30 08:19:02;;;;;;;;;6.75;6.75;;;;;;;;5056660;28;46273;-70
2021/10/30 08:21:27;;;;;;;;;8.00;8.00;;;;;;;;5053655;28;45347;-70
2021/10/30 08:23:52;;;;;;;;;6.00;5.00;;;;;;;;5054755;28;47458;-70
2021/10/30 08:26:18;;;;;;;;;6.00;6.00;;;;;;;;5036592;28;45412;-70
2021/10/30 08:28:44;;;;;;;;;4.50;4.50;;;;;;;;5054245;28;46395;-71
2021/10/30 08:31:10;;;;;;;;;5.50;5.50;;;;;;;;5036847;28;45541;-70
2021/10/30 08:33:35;;;;;;;;;6.00;6.00;;;;;;;;5055428;28;45502;-69
2021/10/30 08:36:01;;;;;;;;;8.75;7.00;;;;;;;;5052449;28;45343;-70
2021/10/30 08:38:26;;;;;;;;;5.75;5.00;;;;;;;;5052931;28;45928;-68
2021/10/30 08:40:53;;;;;;;;;6.25;5.75;;;;;;;;5054272;28;45488;-71
2021/10/30 08:43:19;;;;;;;;;6.00;6.00;;;;;;;;5053707;28;45416;-70
2021/10/30 08:45:45;;;;;;;;;8.50;8.50;;;;;;;;5055734;28;45598;-70
2021/10/30 08:48:12;;;;;;;;;7.25;7.25;;;;;;;;5053449;28;45549;-69
2021/10/30 08:50:38;;;;;;;;;7.25;5.25;;;;;;;;5052539;28;45514;-70
2021/10/30 08:53:03;;;;;;;;;7.00;7.00;;;;;;;;5054009;28;45286;-69
2021/10/30 08:55:28;;;;;;;;;8.00;5.00;;;;;;;;5054154;28;45492;-70
2021/10/30 08:58:01;;;;;;;;;7.00;6.75;;;;;;;;5056025;28;45824;-69
2021/10/30 09:00:26;;;;;;;;;4.75;4.25;;;;;;;;5053731;28;45487;-70
2021/10/30 09:02:56;;;;;;;;;6.50;4.00;;;;;;;;5035159;28;45256;-69
2021/10/30 09:05:23;;;;;;;;;8.00;7.00;;;;;;;;5053260;28;45592;-71
2021/10/30 09:07:52;;;;;;;;;9.00;8.50;;;;;;;;5053237;28;46294;-70
2021/10/30 09:10:19;;;;;;;;;8.00;8.00;;;;;;;;5053665;28;45392;-69
2021/10/30 09:13:04;;;;;;;;;6.00;6.00;;;;;;;;5053767;28;45435;-70
2021/10/30 09:15:29;;;;;;;;;6.75;6.75;;;;;;;;5054217;28;47089;-70
2021/10/30 09:17:55;;;;;;;;;5.50;5.50;;;;;;;;5052124;28;46470;-70
2021/10/30 09:20:28;;;;;;;;;6.00;5.00;;;;;;;;5053166;28;45320;-70
2021/10/30 09:22:54;;;;;;;;;5.50;5.50;;;;;;;;5053193;28;45475;-69
2021/10/30 09:25:20;;;;;;;;;6.25;5.00;;;;;;;;5053759;28;45304;-67
2021/10/30 09:27:46;;;;;;;;;6.00;6.00;;;;;;;;5055671;28;46581;-70
2021/10/30 09:30:15;;;;;;;;;4.00;4.00;;;;;;;;5053244;28;46143;-69
2021/10/30 09:32:48;;;;;;;;;5.00;5.00;;;;;;;;5035382;28;45613;-70
2021/10/30 09:35:20;;;;;;;;;4.00;4.00;;;;;;;;5046958;28;45484;-70
2021/10/30 09:37:45;;;;;;;;;2.75;2.50;;;;;;;;5046066;28;46237;-70
2021/10/30 09:40:19;;;;;;;;;7.00;4.00;;;;;;;;5053732;28;45412;-70
2021/10/30 09:43:06;;;;;;;;;4.25;4.25;;;;;;;;5052837;28;45347;-69
2021/10/30 09:45:31;;;;;;;;;5.50;5.50;;;;;;;;5040790;28;45631;-69
2021/10/30 09:48:00;;;;;;;;;5.75;4.75;;;;;;;;5051947;28;46136;-69
2021/10/30 09:50:29;;;;;;;;;5.00;3.00;;;;;;;;5052303;28;45351;-70
2021/10/30 09:52:54;;;;;;;;;7.75;7.75;;;;;;;;5051167;28;45562;-69
2021/10/30 09:55:26;;;;;;;;;7.00;5.00;;;;;;;;5052923;28;45401;-69
2021/10/30 09:57:58;;;;;;;;;5.75;5.75;;;;;;;;5053348;28;45424;-70
2021/10/30 10:00:24;;;;;;;;;6.50;6.50;;;;;;;;5052371;28;45467;-70
2021/10/30 10:02:51;;;;;;;;;5.25;5.25;;;;;;;;5052249;28;45359;-69
2021/10/30 10:05:18;;;;;;;;;4.75;4.75;;;;;;;;5052966;28;45260;-69
2021/10/30 10:07:43;;;;;;;;;8.50;7.50;;;;;;;;5052247;28;45744;-70
2021/10/30 10:10:09;;;;;;;;;7.25;7.25;;;;;;;;5054005;28;45440;-71
2021/10/30 10:12:34;;;;;;;;;9.00;7.25;;;;;;;;5053419;28;45422;-69
2021/10/30 10:15:01;;;;;;;;;7.25;7.25;;;;;;;;5052123;28;45454;-73
2021/10/30 10:17:26;;;;;;;;;9.00;9.00;;;;;;;;5049737;28;46186;-72
2021/10/30 10:19:51;;;;;;;;;9.50;9.50;;;;;;;;5051516;28;45401;-71
2021/10/30 10:22:17;;;;;;;;;10.00;8.25;;;;;;;;5052479;28;45351;-73
2021/10/30 10:24:42;;;;;;;;;5.00;5.00;;;;;;;;5053613;28;45601;-71
2021/10/30 10:27:08;;;;;;;;;7.00;6.00;;;;;;;;5051474;28;46917;-70
2021/10/30 10:29:34;;;;;;;;;6.75;6.75;;;;;;;;5051401;28;45233;-70
2021/10/30 10:32:01;;;;;;;;;11.50;9.00;;;;;;;;5049563;28;45589;-72
2021/10/30 10:34:36;;;;;;;;;4.00;4.00;;;;;;;;5050788;28;45318;-72
2021/10/30 10:37:11;;;;;;;;;5.75;5.75;;;;;;;;5049041;28;45310;-71
2021/10/30 10:39:37;;;;;;;;;3.50;3.50;;;;;;;;5052281;28;46270;-70
2021/10/30 10:42:03;;;;;;;;;9.00;8.00;;;;;;;;5051649;28;45474;-70
2021/10/30 10:44:28;;;;;;;;;5.00;4.00;;;;;;;;5043716;28;45391;-71
2021/10/30 10:46:55;;;;;;;;;19.25;13.75;;;;;;;;5050706;28;46117;-70
2021/10/30 10:49:33;;;;;;;;;9.25;9.25;;;;;;;;5051374;28;45423;-69
2021/10/30 10:52:18;;;;;;;;;10.25;8.75;;;;;;;;5053192;28;45306;-69
2021/10/30 10:54:52;;;;;;;;;6.25;6.25;;;;;;;;5051193;28;45385;-72
2021/10/30 10:57:24;;;;;;;;;8.00;6.25;;;;;;;;5051687;28;45466;-73
2021/10/30 10:59:58;;;;;;;;;6.00;3.25;;;;;;;;5051099;28;45494;-73
2021/10/30 11:02:27;;;;;;;;;3.75;3.75;;;;;;;;5051034;28;45316;-71
2021/10/30 11:05:08;;;;;;;;;7.75;7.00;;;;;;;;5051001;28;45403;-74
2021/10/30 11:07:34;;;;;;;;;12.75;9.75;;;;;;;;5035721;28;46319;-73
2021/10/30 11:10:03;;;;;;;;;9.25;9.25;;;;;;;;5048705;28;45438;-74
2021/10/30 11:12:29;;;;;;;;;6.00;5.50;;;;;;;;5050148;28;45312;-74
2021/10/30 11:14:56;;;;;;;;;2.75;2.75;;;;;;;;5048869;28;45501;-71
2021/10/30 11:17:24;;;;;;;;;7.00;6.75;;;;;;;;5032250;28;46273;-74
2021/10/30 11:19:50;;;;;;;;;5.25;5.00;;;;;;;;5051383;28;45390;-72
2021/10/30 11:22:20;;;;;;;;;9.75;7.25;;;;;;;;5052045;28;45352;-72
2021/10/30 11:24:49;;;;;;;;;8.75;8.00;;;;;;;;5051418;28;45368;-74
2021/10/30 11:27:14;;;;;;;;;9.50;9.00;;;;;;;;5051709;28;45531;-73
2021/10/30 11:29:48;;;;;;;;;9.25;7.00;;;;;;;;5050586;28;45439;-74
2021/10/30 11:32:13;;;;;;;;;7.25;7.00;;;;;;;;5051437;28;45478;-73
2021/10/30 11:34:38;;;;;;;;;7.75;7.50;;;;;;;;5048334;28;45282;-73
2021/10/30 11:37:05;;;;;;;;;6.50;6.50;;;;;;;;5053292;28;46968;-73
2021/10/30 11:39:31;;;;;;;;;8.50;7.00;;;;;;;;5051759;28;45420;-72
2021/10/30 11:41:56;;;;;;;;;4.50;3.50;;;;;;;;5032364;28;45356;-72
2021/10/30 11:44:23;;;;;;;;;4.25;3.75;;;;;;;;5050718;28;45455;-72
2021/10/30 11:46:53;;;;;;;;;6.00;4.50;;;;;;;;5050066;28;46252;-72
2021/10/30 11:49:27;;;;;;;;;6.50;6.50;;;;;;;;5051603;28;45411;-72
2021/10/30 11:51:52;;;;;;;;;6.00;5.50;;;;;;;;5053115;28;45429;-71
2021/10/30 11:54:20;;;;;;;;;8.75;8.00;;;;;;;;5048535;28;45328;-71
2021/10/30 11:56:48;;;;;;;;;9.00;8.00;;;;;;;;5051078;28;46090;-70
2021/10/30 11:59:13;;;;;;;;;3.00;3.00;;;;;;;;5050476;28;45446;-69
2021/10/30 12:01:40;;;;;;;;;5.00;5.00;;;;;;;;5048806;28;45423;-72
2021/10/30 12:04:05;;;;;;;;;8.00;6.50;;;;;;;;5041587;28;45342;-70
2021/10/30 12:06:34;;;;;;;;;6.75;5.75;;;;;;;;5050004;28;46099;-71
2021/10/30 12:09:01;;;;;;;;;8.50;5.25;;;;;;;;5050625;28;45476;-71
2021/10/30 12:11:27;;;;;;;;;5.00;5.00;;;;;;;;5033389;28;45545;-70
2021/10/30 12:13:56;;;;;;;;;5.00;5.00;;;;;;;;5050396;28;45502;-71
2021/10/30 12:16:22;;;;;;;;;4.50;3.00;;;;;;;;5050423;28;47097;-71
2021/10/30 12:18:47;;;;;;;;;8.00;7.75;;;;;;;;5052514;28;45777;-70
2021/10/30 12:21:12;;;;;;;;;10.25;10.25;;;;;;;;5032211;28;45370;-72
2021/10/30 12:23:55;;;;;;;;;7.50;7.50;;;;;;;;5050476;28;45567;-70
2021/10/30 12:26:20;;;;;;;;;9.00;8.00;;;;;;;;5052088;28;45411;-71
2021/10/30 12:28:45;;;;;;;;;5.00;4.25;;;;;;;;5051999;28;45434;-72
2021/10/30 12:31:11;;;;;;;;;4.25;3.00;;;;;;;;5055061;28;45310;-72
2021/10/30 12:33:37;;;;;;;;;8.25;7.00;;;;;;;;5053487;28;45527;-71
2021/10/30 12:36:04;;;;;;;;;6.50;4.75;;;;;;;;5053086;28;47075;-71
2021/10/30 12:38:29;;;;;;;;;8.00;7.75;;;;;;;;5054016;28;45423;-71
2021/10/30 12:40:55;;;;;;;;;5.25;5.25;;;;;;;;5053663;28;45455;-71
2021/10/30 12:43:22;;;;;;;;;7.25;7.25;;;;;;;;5053106;28;45474;-71
2021/10/30 12:45:49;;;;;;;;;7.50;7.00;;;;;;;;5055094;28;47471;-71
2021/10/30 12:48:14;;;;;;;;;5.25;4.25;;;;;;;;5034994;28;45649;-70
2021/10/30 12:50:39;;;;;;;;;7.75;7.00;;;;;;;;5053301;28;45475;-71
2021/10/30 12:53:04;;;;;;;;;4.00;4.00;;;;;;;;5053198;28;46529;-70
2021/10/30 12:55:30;;;;;;;;;8.00;7.00;;;;;;;;5053514;28;46235;-70
2021/10/30 12:57:58;;;;;;;;;5.25;5.25;;;;;;;;5055824;28;45394;-70
2021/10/30 13:00:35;;;;;;;;;10.00;8.00;;;;;;;;5053362;28;45479;-71
2021/10/30 13:03:13;;;;;;;;;9.50;7.25;;;;;;;;5053118;28;45526;-71
2021/10/30 13:05:41;;;;;;;;;5.00;5.00;;;;;;;;5053512;28;46366;-73
2021/10/30 13:08:06;;;;;;;;;7.00;6.50;;;;;;;;5051996;28;45426;-73
2021/10/30 13:10:32;;;;;;;;;5.00;3.25;;;;;;;;5036161;28;45339;-74
2021/10/30 13:12:57;;;;;;;;;3.50;3.00;;;;;;;;5054611;28;45293;-74
2021/10/30 13:15:23;;;;;;;;;4.00;3.25;;;;;;;;5052502;28;46327;-74
2021/10/30 13:17:48;;;;;;;;;4.50;4.50;;;;;;;;5052595;28;45522;-73
2021/10/30 13:20:13;;;;;;;;;6.25;5.50;;;;;;;;5052986;28;45352;-71
2021/10/30 13:22:39;;;;;;;;;4.75;4.50;;;;;;;;5052828;28;45653;-72
2021/10/30 13:25:05;;;;;;;;;5.00;5.00;;;;;;;;5054499;28;46023;-70
2021/10/30 13:27:32;;;;;;;;;3.00;3.00;;;;;;;;5052742;28;45427;-71
2021/10/30 13:29:57;;;;;;;;;3.00;3.00;;;;;;;;5052172;28;45393;-71
2021/10/30 13:32:23;;;;;;;;;3.75;3.75;;;;;;;;5052444;28;45518;-71
2021/10/30 13:34:48;;;;;;;;;2.75;2.75;;;;;;;;5053084;28;45422;-72
2021/10/30 13:37:13;;;;;;;;;4.50;3.00;;;;;;;;5053045;28;45323;-70
2021/10/30 13:39:39;;;;;;;;;3.00;3.00;;;;;;;;5036671;28;45464;-71
2021/10/30 13:42:05;;;;;;;;;5.00;2.75;;;;;;;;5053068;28;45597;-71
2021/10/30 13:44:30;;;;;;;;;4.50;4.50;;;;;;;;5052462;28;46197;-71
2021/10/30 13:46:56;;;;;;;;;5.75;5.00;;;;;;;;5051304;28;45561;-72
2021/10/30 13:49:21;;;;;;;;;4.75;3.00;;;;;;;;5053107;28;45622;-71
2021/10/30 13:51:46;;;;;;;;;4.50;4.50;;;;;;;;5052801;28;45277;-72
2021/10/30 13:54:11;;;;;;;;;4.00;4.00;;;;;;;;5052367;28;45507;-69
2021/10/30 13:56:37;;;;;;;;;3.00;3.00;;;;;;;;5051814;28;45341;-71
2021/10/30 13:59:04;;;;;;;;;4.50;3.50;;;;;;;;5052914;28;45543;-71
2021/10/30 14:01:29;;;;;;;;;4.00;4.00;;;;;;;;5028979;28;45463;-70
2021/10/30 14:03:54;;;;;;;;;2.25;1.00;;;;;;;;5043194;28;45999;-70
2021/10/30 14:06:20;;;;;;;;;6.75;3.75;;;;;;;;5051234;28;45394;-70
2021/10/30 14:08:46;;;;;;;;;1.25;1.25;;;;;;;;5051926;28;45486;-70
2021/10/30 14:11:11;;;;;;;;;3.00;3.00;;;;;;;;5051691;28;45320;-70
2021/10/30 14:13:37;;;;;;;;;3.00;2.00;;;;;;;;5051785;28;46229;-69
2021/10/30 14:16:03;;;;;;;;;2.00;2.00;;;;;;;;5053124;28;45317;-69
2021/10/30 14:18:30;;;;;;;;;1.25;1.25;;;;;;;;5050798;28;45347;-69
2021/10/30 14:20:57;;;;;;;;;1.00;1.00;;;;;;;;5051974;28;45522;-68
2021/10/30 14:23:22;;;;;;;;;2.25;2.25;;;;;;;;5051348;28;46964;-70
2021/10/30 14:25:48;;;;;;;;;3.00;2.00;;;;;;;;5050655;28;45393;-70
2021/10/30 14:28:13;;;;;;;;;1.25;1.25;;;;;;;;5052524;28;45446;-70